createdAt,value
2018-12-06T00:01:14.226Z,1.97
2018-12-06T00:06:18.246Z,4.23
2018-12-06T00:11:22.245Z,3.63
2018-12-06T00:16:26.204Z,4.03
2018-12-06T00:21:30.215Z,3.67
2018-12-06T00:26:34.480Z,4.33
2018-12-06T00:31:38.665Z,4.03
2018-12-06T00:36:42.633Z,6.20
2018-12-06T00:41:46.582Z,5.70
2018-12-06T00:46:50.547Z,5.47
2018-12-06T00:51:54.447Z,4.17
2018-12-06T00:56:58.420Z,6.30
2018-12-06T01:02:02.343Z,5.80
2018-12-06T01:07:06.345Z,5.63
2018-12-06T01:12:10.321Z,4.77
2018-12-06T01:17:14.212Z,5.40
2018-12-06T01:22:18.151Z,3.73
2018-12-06T01:27:22.777Z,3.87
2018-12-06T01:32:26.680Z,4.13
2018-12-06T01:37:30.925Z,4.63
2018-12-06T01:42:34.910Z,5.20
2018-12-06T01:47:38.866Z,4.13
2018-12-06T01:52:42.798Z,5.83
2018-12-06T01:57:46.744Z,4.13
2018-12-06T02:02:50.613Z,4.27
2018-12-06T02:07:54.585Z,4.80
2018-12-06T02:12:58.677Z,4.80
2018-12-06T02:18:02.637Z,3.53
2018-12-06T02:23:06.567Z,3.53
2018-12-06T02:28:10.502Z,3.67
2018-12-06T02:33:14.409Z,3.63
2018-12-06T02:38:18.402Z,4.20
2018-12-06T02:43:22.390Z,3.10
2018-12-06T02:48:26.401Z,3.70
2018-12-06T02:53:30.453Z,2.87
2018-12-06T02:58:34.377Z,2.27
2018-12-06T03:03:38.360Z,2.90
2018-12-06T03:08:42.265Z,2.40
2018-12-06T03:13:46.181Z,2.10
2018-12-06T03:18:50.270Z,2.93
2018-12-06T03:23:54.340Z,2.63
2018-12-06T03:28:58.341Z,1.87
2018-12-06T03:34:02.448Z,3.20
2018-12-06T03:39:07.706Z,2.73
2018-12-06T03:44:11.809Z,2.00
2018-12-06T03:49:15.722Z,3.47
2018-12-06T03:54:19.792Z,2.17
2018-12-06T03:59:24.270Z,2.20
2018-12-06T04:04:28.227Z,2.57
2018-12-06T04:09:32.214Z,2.73
2018-12-06T04:14:36.153Z,2.70
2018-12-06T04:19:40.088Z,2.80
2018-12-06T04:24:44.196Z,3.10
2018-12-06T04:29:48.152Z,2.57
2018-12-06T04:34:52.124Z,2.27
2018-12-06T04:39:56.181Z,2.43
2018-12-06T04:45:00.160Z,2.83
2018-12-06T04:50:04.417Z,2.73
2018-12-06T04:55:08.294Z,3.13
2018-12-06T05:00:12.292Z,2.47
2018-12-06T05:05:16.289Z,2.53
2018-12-06T05:10:20.313Z,2.50
2018-12-06T05:15:24.705Z,3.87
2018-12-06T05:20:28.708Z,2.47
2018-12-06T05:25:32.750Z,2.50
2018-12-06T05:30:36.686Z,2.20
2018-12-06T05:35:40.618Z,1.70
2018-12-06T05:40:44.574Z,2.47
2018-12-06T05:45:48.510Z,2.43
2018-12-06T05:50:52.453Z,1.80
2018-12-06T05:55:56.481Z,2.23
2018-12-06T06:01:00.437Z,2.27
2018-12-06T06:06:04.537Z,2.27
2018-12-06T06:11:08.454Z,2.00
2018-12-06T06:16:12.357Z,2.70
2018-12-06T06:21:16.322Z,2.20
2018-12-06T06:26:20.408Z,3.77
2018-12-06T06:31:24.336Z,3.93
2018-12-06T06:36:28.246Z,3.17
2018-12-06T06:41:32.217Z,3.33
2018-12-06T06:46:36.109Z,3.53
2018-12-06T06:51:40.377Z,5.00
2018-12-06T06:56:44.577Z,4.67
2018-12-06T07:01:48.677Z,4.20
2018-12-06T07:06:52.733Z,4.00
2018-12-06T07:11:56.689Z,3.43
2018-12-06T07:17:00.697Z,4.47
2018-12-06T07:22:06.096Z,5.73
2018-12-06T07:27:10.013Z,8.07
2018-12-06T07:32:13.970Z,9.37
2018-12-06T07:37:18.037Z,7.20
2018-12-06T07:42:21.931Z,8.43
2018-12-06T07:47:25.853Z,7.47
2018-12-06T07:52:29.969Z,11.47
2018-12-06T07:57:34.049Z,8.60
2018-12-06T08:02:38.169Z,9.33
2018-12-06T08:07:42.158Z,9.23
2018-12-06T08:12:46.140Z,11.67
2018-12-06T08:17:50.018Z,9.00
2018-12-06T08:22:53.985Z,9.43
2018-12-06T08:27:58.174Z,12.10
2018-12-06T08:33:02.308Z,8.07
2018-12-06T08:38:06.300Z,10.70
2018-12-06T08:43:10.409Z,8.80
2018-12-06T08:48:14.350Z,8.63
2018-12-06T08:53:18.366Z,10.67
2018-12-06T08:58:22.578Z,12.20
2018-12-06T09:03:26.647Z,8.00
2018-12-06T09:08:30.621Z,7.53
2018-12-06T09:13:34.734Z,7.40
2018-12-06T09:18:38.781Z,11.03
2018-12-06T09:23:43.045Z,7.00
2018-12-06T09:28:47.318Z,9.13
2018-12-06T09:34:05.765Z,6.87
2018-12-06T09:39:10.395Z,9.00
2018-12-06T09:44:14.320Z,7.73
2018-12-06T09:49:18.301Z,5.40
2018-12-06T09:54:22.461Z,8.50
2018-12-06T09:59:26.426Z,8.63
2018-12-06T10:04:30.430Z,8.47
2018-12-06T10:09:34.369Z,4.53
2018-12-06T10:14:38.522Z,6.50
2018-12-06T10:19:42.467Z,8.07
2018-12-06T10:24:46.425Z,6.53
2018-12-06T10:29:50.397Z,4.33
2018-12-06T10:34:54.314Z,6.67
2018-12-06T10:39:58.337Z,7.73
2018-12-06T10:45:02.560Z,4.50
2018-12-06T10:50:06.749Z,5.53
2018-12-06T10:55:10.678Z,4.90
2018-12-06T11:00:20.228Z,5.40
2018-12-06T11:05:24.680Z,8.43
2018-12-06T11:10:28.628Z,6.97
2018-12-06T11:15:32.632Z,6.60
2018-12-06T11:20:36.578Z,5.00
2018-12-06T11:25:40.577Z,3.50
2018-12-06T11:30:44.559Z,6.87
2018-12-06T11:35:48.584Z,6.40
2018-12-06T11:40:52.545Z,10.63
2018-12-06T11:45:56.661Z,6.53
2018-12-06T11:51:00.597Z,6.67
2018-12-06T11:56:04.749Z,6.57
2018-12-06T12:01:08.832Z,5.63
2018-12-06T12:06:12.750Z,5.13
2018-12-06T12:11:16.785Z,7.10
2018-12-06T12:16:20.745Z,6.40
2018-12-06T12:21:24.855Z,6.03
2018-12-06T12:26:29.098Z,6.53
2018-12-06T12:31:33.984Z,5.97
2018-12-06T12:36:38.033Z,5.23
2018-12-06T12:41:42.065Z,5.67
2018-12-06T12:46:46.185Z,8.67
2018-12-06T12:51:50.181Z,6.70
2018-12-06T12:56:54.677Z,6.40
2018-12-06T13:01:58.929Z,5.73
2018-12-06T13:07:10.936Z,7.63
2018-12-06T13:12:14.951Z,5.57
2018-12-06T13:17:18.893Z,7.23
2018-12-06T13:22:22.826Z,4.57
2018-12-06T13:27:26.791Z,4.87
2018-12-06T13:32:30.854Z,5.53
